Terminal Aerodrome Forecast
Issued by NWS

Home | Current Version | Previous Version | Text Only | Print | Product List | Glossary On
Versions: 1 2 3 4 5 6 7 8 9 10 11 12 13 14 15
000
FTUS45 KRIW 241100
TAFCPR
TAF
KCPR 241124Z 2412/2512 24011KT P6SM SCT080
     FM241700 22014G23KT P6SM SCT080
     FM250100 23012KT P6SM SCT080
     FM250600 27011KT P6SM VCSH SCT030 OVC050=

USA.gov is the U.S. government's official web portal to all federal, state and local government web resources and services.